createdAt,value
2022-08-01T00:00:09.898Z,100878.81
2022-08-01T00:02:39.420Z,100884.00
2022-08-01T00:05:07.288Z,100873.59
2022-08-01T00:07:34.612Z,100873.56
2022-08-01T00:10:01.913Z,100878.84
2022-08-01T00:12:28.660Z,100867.50
2022-08-01T00:14:55.381Z,100874.47
2022-08-01T00:17:22.158Z,100867.47
2022-08-01T00:19:48.934Z,100864.88
2022-08-01T00:22:15.661Z,100864.84
2022-08-01T00:24:42.377Z,100861.41
2022-08-01T00:27:09.050Z,100860.53
2022-08-01T00:30:10.244Z,100850.97
2022-08-01T00:32:22.602Z,100854.44
2022-08-01T00:34:49.431Z,100850.09
2022-08-01T00:37:19.830Z,100849.22
2022-08-01T00:39:46.614Z,100847.47
2022-08-01T00:42:13.696Z,100847.47
2022-08-01T00:44:41.056Z,100846.56
2022-08-01T00:47:08.125Z,100843.09
2022-08-01T00:49:35.080Z,100843.97
2022-08-01T00:52:02.253Z,100845.72
2022-08-01T00:54:29.373Z,100846.56
2022-08-01T00:56:56.928Z,100842.22
2022-08-01T00:59:24.039Z,100845.69
2022-08-01T01:01:52.946Z,100839.59
2022-08-01T01:04:20.556Z,100850.06
2022-08-01T01:06:47.162Z,100841.31
2022-08-01T01:09:13.971Z,100842.22
2022-08-01T01:12:00.818Z,100845.72
2022-08-01T01:14:47.674Z,100846.56
2022-08-01T01:17:31.419Z,100833.50
2022-08-01T01:20:06.681Z,100833.50
2022-08-01T01:22:45.592Z,100839.59
2022-08-01T01:25:30.812Z,100828.25
2022-08-01T01:28:13.182Z,100828.25
2022-08-01T01:30:42.464Z,100826.53
2022-08-01T01:33:12.329Z,100828.25
2022-08-01T01:35:42.884Z,100827.38
2022-08-01T01:38:15.938Z,100830.88
2022-08-01T01:40:43.452Z,100830.88
2022-08-01T01:43:12.556Z,100832.63
2022-08-01T01:45:40.332Z,100828.25
2022-08-01T01:48:07.552Z,100822.16
2022-08-01T01:50:35.126Z,100823.91
2022-08-01T01:53:02.631Z,100777.78
2022-08-01T01:55:30.606Z,100823.03
2022-08-01T01:57:57.957Z,100814.28
2022-08-01T02:00:25.204Z,100819.50
2022-08-01T02:02:54.224Z,100818.63
2022-08-01T02:05:21.823Z,100814.28
2022-08-01T02:07:49.461Z,100811.66
2022-08-01T02:10:17.430Z,100800.31
2022-08-01T02:12:47.040Z,100809.91
2022-08-01T02:15:14.971Z,100809.06
2022-08-01T02:17:44.625Z,100810.78
2022-08-01T02:20:11.818Z,100803.81
2022-08-01T02:22:41.791Z,100805.56
2022-08-01T02:25:08.632Z,100803.78
2022-08-01T02:27:44.894Z,100805.53
2022-08-01T02:30:13.317Z,100795.09
2022-08-01T02:32:42.821Z,100795.09
2022-08-01T02:35:12.591Z,100795.09
2022-08-01T02:37:44.291Z,100792.53
2022-08-01T02:40:14.415Z,100792.53
2022-08-01T02:42:44.695Z,100788.19
2022-08-01T02:45:12.645Z,100789.91
2022-08-01T02:47:40.908Z,100791.66
2022-08-01T02:50:09.310Z,100795.13
2022-08-01T02:52:37.179Z,100799.50
2022-08-01T02:55:04.845Z,100797.75
2022-08-01T02:57:52.312Z,100795.09
2022-08-01T03:00:19.013Z,100790.72
2022-08-01T03:02:46.671Z,100788.06
2022-08-01T03:05:14.135Z,100788.03
2022-08-01T03:07:41.890Z,100791.50
2022-08-01T03:10:09.655Z,100788.00
2022-08-01T03:12:38.800Z,100781.03
2022-08-01T03:15:06.373Z,100782.75
2022-08-01T03:17:33.557Z,100788.00
2022-08-01T03:20:03.785Z,100790.63
2022-08-01T03:22:31.682Z,100789.75
2022-08-01T03:25:00.337Z,100785.44
2022-08-01T03:27:27.419Z,100788.97
2022-08-01T03:29:56.882Z,100777.66
2022-08-01T03:32:24.099Z,100782.00
2022-08-01T03:34:50.992Z,100781.09
2022-08-01T03:37:20.901Z,100782.81
2022-08-01T03:39:52.823Z,100780.19
2022-08-01T03:42:24.501Z,100780.19
2022-08-01T03:44:55.709Z,100783.66
2022-08-01T03:47:24.079Z,100782.75
2022-08-01T03:49:52.104Z,100783.66
2022-08-01T03:52:19.970Z,100786.28
2022-08-01T03:54:48.759Z,100782.75
2022-08-01T03:57:35.154Z,100780.19
2022-08-01T04:00:07.326Z,100782.81
2022-08-01T04:02:39.194Z,100779.28
2022-08-01T04:05:06.516Z,100788.84
2022-08-01T04:07:33.810Z,100798.44
2022-08-01T04:10:00.778Z,100798.44
2022-08-01T04:12:27.495Z,100794.97
2022-08-01T04:14:54.191Z,100794.97
2022-08-01T04:17:20.830Z,100794.97
2022-08-01T04:19:47.688Z,100797.56
2022-08-01T04:22:15.164Z,100797.53
2022-08-01T04:24:43.642Z,100795.75
2022-08-01T04:27:12.528Z,100785.31
2022-08-01T04:29:40.346Z,100793.13
2022-08-01T04:32:10.787Z,100793.03
2022-08-01T04:34:39.057Z,100797.41
2022-08-01T04:37:06.284Z,100794.78
2022-08-01T04:39:35.666Z,100791.34
2022-08-01T04:42:17.648Z,100798.34
2022-08-01T04:44:54.304Z,100801.00
2022-08-01T04:47:21.078Z,100799.25
2022-08-01T04:49:49.261Z,100801.88
2022-08-01T04:52:22.987Z,100802.78
2022-08-01T04:54:51.577Z,100801.88
2022-08-01T04:57:18.264Z,100801.88
2022-08-01T04:59:45.421Z,100802.75
2022-08-01T05:02:13.652Z,100805.38
2022-08-01T05:04:41.092Z,100809.75
2022-08-01T05:07:08.476Z,100811.47
2022-08-01T05:09:35.524Z,100808.00
2022-08-01T05:12:03.096Z,100812.31
2022-08-01T05:14:33.157Z,100807.88
2022-08-01T05:17:01.033Z,100810.47
2022-08-01T05:19:27.791Z,100809.56
2022-08-01T05:22:00.187Z,100797.31
2022-08-01T05:24:30.532Z,100785.94
2022-08-01T05:26:58.091Z,100795.53
2022-08-01T05:29:25.069Z,100780.66
2022-08-01T05:31:52.705Z,100776.28
2022-08-01T05:34:19.816Z,100775.38
2022-08-01T05:36:46.514Z,100773.56
2022-08-01T05:39:14.000Z,100772.72
2022-08-01T05:41:41.388Z,100778.72
2022-08-01T05:44:08.151Z,100778.59
2022-08-01T05:46:35.294Z,100788.09
2022-08-01T05:49:02.725Z,100789.72
2022-08-01T05:51:29.659Z,100788.81
2022-08-01T05:53:56.737Z,100793.31
2022-08-01T05:56:24.520Z,100796.78
2022-08-01T05:58:53.604Z,100793.16
2022-08-01T06:01:20.510Z,100800.25
2022-08-01T06:03:47.471Z,100804.13
2022-08-01T06:06:15.251Z,100800.25
2022-08-01T06:08:43.899Z,100805.22
2022-08-01T06:11:11.803Z,100780.69
2022-08-01T06:13:44.939Z,100794.41
2022-08-01T06:16:15.778Z,100793.53
2022-08-01T06:18:44.066Z,100791.72
2022-08-01T06:21:10.777Z,100786.38
2022-08-01T06:23:38.407Z,100797.84
2022-08-01T06:26:05.304Z,100802.34
2022-08-01T06:28:32.632Z,100799.78
2022-08-01T06:31:00.287Z,100801.56
2022-08-01T06:33:27.636Z,100806.88
2022-08-01T06:35:55.507Z,100804.34
2022-08-01T06:38:22.227Z,100800.03
2022-08-01T06:40:49.227Z,100793.97
2022-08-01T06:43:16.436Z,100795.91
2022-08-01T06:45:43.525Z,100802.13
2022-08-01T06:48:10.188Z,100806.47
2022-08-01T06:50:37.559Z,100810.94
2022-08-01T06:53:04.418Z,100813.59
2022-08-01T06:55:32.383Z,100810.97
2022-08-01T06:57:59.234Z,100812.72
2022-08-01T07:00:28.795Z,100818.03
2022-08-01T07:02:56.576Z,100812.00
2022-08-01T07:05:25.895Z,100818.03
2022-08-01T07:07:52.647Z,100820.59
2022-08-01T07:10:19.686Z,100822.28
2022-08-01T07:12:46.338Z,100822.13
2022-08-01T07:15:13.583Z,100823.84
2022-08-01T07:17:41.636Z,100823.78
2022-08-01T07:20:09.695Z,100830.69
2022-08-01T07:22:37.787Z,100828.72
2022-08-01T07:25:08.662Z,100829.44
2022-08-01T07:27:38.124Z,100826.72
2022-08-01T07:30:06.407Z,100829.53
2022-08-01T07:32:33.865Z,100828.59
2022-08-01T07:35:00.811Z,100822.09
2022-08-01T07:37:46.288Z,100822.78
2022-08-01T07:40:17.640Z,100816.63
2022-08-01T07:42:46.192Z,100808.78
2022-08-01T07:45:13.755Z,100814.06
2022-08-01T07:47:40.622Z,100818.63
2022-08-01T07:50:09.242Z,100818.81
2022-08-01T07:52:35.890Z,100814.50
2022-08-01T07:55:02.580Z,100817.81
2022-08-01T07:57:29.511Z,100815.16
2022-08-01T07:59:56.375Z,100826.59
2022-08-01T08:02:23.321Z,100829.97
2022-08-01T08:04:52.104Z,100824.56
2022-08-01T08:07:18.904Z,100823.66
2022-08-01T08:09:45.595Z,100824.50
2022-08-01T08:12:18.190Z,100824.53
2022-08-01T08:14:46.588Z,100819.75
2022-08-01T08:17:13.296Z,100824.06
2022-08-01T08:19:41.078Z,100830.97
2022-08-01T08:22:09.135Z,100826.88
2022-08-01T08:24:45.507Z,100827.63
2022-08-01T08:27:13.912Z,100829.38
2022-08-01T08:29:40.550Z,100825.16
2022-08-01T08:32:08.344Z,100822.31
2022-08-01T08:34:35.407Z,100822.09
2022-08-01T08:37:02.370Z,100830.09
2022-08-01T08:39:31.327Z,100835.38
2022-08-01T08:42:11.789Z,100823.69
2022-08-01T08:44:43.306Z,100833.38
2022-08-01T08:47:15.924Z,100827.94
2022-08-01T08:49:47.006Z,100827.84
2022-08-01T08:52:18.413Z,100840.13
2022-08-01T08:54:45.890Z,100846.34
2022-08-01T08:57:14.587Z,100841.91
2022-08-01T08:59:43.671Z,100842.72
2022-08-01T09:02:10.849Z,100808.66
2022-08-01T09:04:38.590Z,100848.69
2022-08-01T09:07:06.181Z,100851.28
2022-08-01T09:09:33.727Z,100838.19
2022-08-01T09:12:00.679Z,100848.53
2022-08-01T09:14:31.144Z,100838.91
2022-08-01T09:17:01.924Z,100848.53
2022-08-01T09:19:39.500Z,100848.47
2022-08-01T09:22:09.659Z,100838.91
2022-08-01T09:24:36.951Z,100837.66
2022-08-01T09:27:17.190Z,100833.69
2022-08-01T09:29:49.846Z,100831.03
2022-08-01T09:32:31.433Z,100834.50
2022-08-01T09:35:20.286Z,100841.44
2022-08-01T09:37:47.487Z,100838.03
2022-08-01T09:40:15.433Z,100840.66
2022-08-01T09:42:42.546Z,100836.97
2022-08-01T09:45:10.672Z,100837.75
2022-08-01T09:47:50.300Z,100842.00
2022-08-01T09:50:17.893Z,100851.16
2022-08-01T09:52:57.161Z,100843.06
2022-08-01T09:55:24.096Z,100843.22
2022-08-01T09:57:57.264Z,100849.00
2022-08-01T10:00:44.280Z,100847.91
2022-08-01T10:03:27.370Z,100847.88
2022-08-01T10:05:54.766Z,100844.22
2022-08-01T10:08:24.308Z,100846.25
2022-08-01T10:11:12.422Z,100852.38
2022-08-01T10:13:39.542Z,100856.91
2022-08-01T10:16:10.011Z,100853.31
2022-08-01T10:18:41.965Z,100853.09
2022-08-01T10:21:10.896Z,100867.06
2022-08-01T10:23:41.112Z,100857.25
2022-08-01T10:26:08.888Z,100863.59
2022-08-01T10:28:39.438Z,100864.38
2022-08-01T10:31:13.205Z,100867.91
2022-08-01T10:33:50.584Z,100868.78
2022-08-01T10:36:26.775Z,100869.53
2022-08-01T10:38:59.671Z,100881.03
2022-08-01T10:41:30.484Z,100869.69
2022-08-01T10:43:58.062Z,100865.75
2022-08-01T10:46:25.062Z,100876.41
2022-08-01T10:49:02.315Z,100874.84
2022-08-01T10:51:53.009Z,100879.19
2022-08-01T10:54:16.769Z,100880.06
2022-08-01T10:56:45.595Z,100872.19
2022-08-01T10:59:16.081Z,100873.97
2022-08-01T11:01:44.846Z,100871.97
2022-08-01T11:04:16.491Z,100866.19
2022-08-01T11:06:49.975Z,100871.84
2022-08-01T11:09:17.207Z,100868.81
2022-08-01T11:12:06.231Z,100847.72
2022-08-01T11:14:53.912Z,100872.81
2022-08-01T11:17:37.955Z,100871.84
2022-08-01T11:20:10.627Z,100870.38
2022-08-01T11:22:56.010Z,100866.50
2022-08-01T11:26:03.450Z,100877.84
2022-08-01T11:28:28.625Z,100882.25
2022-08-01T11:31:02.865Z,100884.47
2022-08-01T11:33:45.484Z,100876.00
2022-08-01T11:36:55.433Z,100842.66
2022-08-01T11:39:13.595Z,100890.63
2022-08-01T11:41:41.737Z,100884.16
2022-08-01T11:44:14.971Z,100893.22
2022-08-01T11:47:10.056Z,100896.63
2022-08-01T11:49:38.842Z,100895.00
2022-08-01T11:52:08.561Z,100891.16
2022-08-01T11:54:38.233Z,100892.47
2022-08-01T11:57:10.326Z,100898.06
2022-08-01T12:00:03.580Z,100900.34
2022-08-01T12:02:40.186Z,100897.22
2022-08-01T12:05:14.143Z,100898.09
2022-08-01T12:07:43.124Z,100901.72
2022-08-01T12:10:17.355Z,100898.59
2022-08-01T12:12:47.433Z,100901.06
2022-08-01T12:15:14.483Z,100900.94
2022-08-01T12:17:45.123Z,100900.97
2022-08-01T12:20:23.572Z,100901.19
2022-08-01T12:22:57.006Z,100901.16
2022-08-01T12:25:24.115Z,100900.00
2022-08-01T12:27:56.266Z,100884.50
2022-08-01T12:30:25.102Z,100885.59
2022-08-01T12:32:53.309Z,100888.06
2022-08-01T12:35:25.138Z,100892.19
2022-08-01T12:37:57.591Z,100890.22
2022-08-01T12:40:29.249Z,100898.31
2022-08-01T12:42:57.061Z,100891.19
2022-08-01T12:45:27.773Z,100892.50
2022-08-01T12:47:56.121Z,100893.81
2022-08-01T12:50:24.122Z,100894.25
2022-08-01T12:52:51.294Z,100905.84
2022-08-01T12:55:19.503Z,100906.50
2022-08-01T12:57:51.586Z,100896.06
2022-08-01T13:00:20.572Z,100896.56
2022-08-01T13:02:48.315Z,100904.75
2022-08-01T13:05:16.037Z,100904.75
2022-08-01T13:07:47.489Z,100913.66
2022-08-01T13:10:16.219Z,100911.03
2022-08-01T13:12:53.227Z,100908.91
2022-08-01T13:15:21.765Z,100917.59
2022-08-01T13:17:49.233Z,100911.22
2022-08-01T13:20:22.975Z,100908.25
2022-08-01T13:22:50.101Z,100901.13
2022-08-01T13:25:22.083Z,100897.09
2022-08-01T13:27:53.607Z,100902.22
2022-08-01T13:30:22.095Z,100892.13
2022-08-01T13:33:02.771Z,100900.50
2022-08-01T13:35:29.687Z,100892.94
2022-08-01T13:37:58.138Z,100891.56
2022-08-01T13:40:26.691Z,100895.66
2022-08-01T13:42:54.730Z,100889.25
2022-08-01T13:45:22.740Z,100896.44
2022-08-01T13:48:11.777Z,100894.53
2022-08-01T13:50:37.742Z,100900.59
2022-08-01T13:53:04.587Z,100905.13
2022-08-01T13:55:35.228Z,100899.03
2022-08-01T13:58:04.195Z,100914.91
2022-08-01T14:00:32.524Z,100908.03
2022-08-01T14:02:59.338Z,100910.28
2022-08-01T14:05:26.114Z,100900.28
2022-08-01T14:07:56.357Z,100909.66
2022-08-01T14:10:24.675Z,100910.94
2022-08-01T14:12:51.540Z,100916.69
2022-08-01T14:15:38.094Z,100907.75
2022-08-01T14:18:06.321Z,100917.53
2022-08-01T14:20:34.954Z,100922.06
2022-08-01T14:23:01.939Z,100911.81
2022-08-01T14:26:02.595Z,100920.88
2022-08-01T14:28:15.815Z,100915.34
2022-08-01T14:30:43.757Z,100919.41
2022-08-01T14:33:11.117Z,100917.69
2022-08-01T14:36:01.272Z,100914.38
2022-08-01T14:38:29.195Z,100919.06
2022-08-01T14:40:59.080Z,100920.78
2022-08-01T14:43:32.710Z,100910.50
2022-08-01T14:46:00.037Z,100910.47
2022-08-01T14:48:26.951Z,100909.28
2022-08-01T14:50:53.857Z,100904.53
2022-08-01T14:53:20.920Z,100899.84
2022-08-01T14:55:47.886Z,100896.72
2022-08-01T14:58:14.603Z,100891.50
2022-08-01T15:00:41.460Z,100898.06
2022-08-01T15:03:08.275Z,100900.13
2022-08-01T15:05:35.176Z,100896.84
2022-08-01T15:08:01.865Z,100900.34
2022-08-01T15:10:28.913Z,100904.34
2022-08-01T15:12:56.632Z,100901.44
2022-08-01T15:15:26.560Z,100901.81
2022-08-01T15:17:53.995Z,100900.84
2022-08-01T15:20:20.725Z,100899.16
2022-08-01T15:22:48.820Z,100894.97
2022-08-01T15:25:15.690Z,100902.28
2022-08-01T15:27:43.784Z,100892.69
2022-08-01T15:30:10.728Z,100899.53
2022-08-01T15:32:37.619Z,100903.28
2022-08-01T15:35:04.605Z,100911.56
2022-08-01T15:37:31.452Z,100907.75
2022-08-01T15:39:58.119Z,100911.78
2022-08-01T15:42:26.777Z,100905.19
2022-08-01T15:44:54.203Z,100911.47
2022-08-01T15:47:21.090Z,100907.44
2022-08-01T15:49:52.466Z,100903.94
2022-08-01T15:52:22.060Z,100905.00
2022-08-01T15:54:50.084Z,100908.06
2022-08-01T15:57:16.934Z,100905.56
2022-08-01T15:59:43.886Z,100901.53
2022-08-01T16:02:11.166Z,100908.06
2022-08-01T16:04:38.772Z,100897.47
2022-08-01T16:07:06.385Z,100911.72
2022-08-01T16:09:35.971Z,100901.69
2022-08-01T16:12:02.644Z,100901.56
2022-08-01T16:14:29.399Z,100903.38
2022-08-01T16:16:57.413Z,100907.25
2022-08-01T16:19:24.276Z,100906.69
2022-08-01T16:21:51.880Z,100907.97
2022-08-01T16:24:18.653Z,100912.28
2022-08-01T16:26:45.366Z,100911.28
2022-08-01T16:29:12.206Z,100914.66
2022-08-01T16:31:55.773Z,100913.63
2022-08-01T16:34:26.512Z,100915.59
2022-08-01T16:36:55.413Z,100918.88
2022-08-01T16:39:23.643Z,100918.09
2022-08-01T16:41:55.309Z,100917.84
2022-08-01T16:44:33.837Z,100922.47
2022-08-01T16:47:02.877Z,100915.75
2022-08-01T16:49:29.669Z,100911.75
2022-08-01T16:51:56.533Z,100918.78
2022-08-01T16:54:25.323Z,100919.91
2022-08-01T16:56:54.315Z,100918.72
2022-08-01T16:59:21.763Z,100914.53
2022-08-01T17:01:56.256Z,100919.19
2022-08-01T17:04:28.457Z,100924.41
2022-08-01T17:06:55.235Z,100913.31
2022-08-01T17:09:22.102Z,100924.00
2022-08-01T17:11:48.914Z,100925.41
2022-08-01T17:14:15.678Z,100924.03
2022-08-01T17:16:42.566Z,100922.84
2022-08-01T17:19:09.596Z,100932.22
2022-08-01T17:21:39.819Z,100928.03
2022-08-01T17:24:08.431Z,100940.66
2022-08-01T17:26:35.219Z,100943.28
2022-08-01T17:29:02.125Z,100950.81
2022-08-01T17:31:28.922Z,100945.00
2022-08-01T17:33:55.766Z,100947.53
2022-08-01T17:36:23.101Z,100946.91
2022-08-01T17:38:49.949Z,100950.13
2022-08-01T17:41:17.760Z,100949.38
2022-08-01T17:43:44.698Z,100951.13
2022-08-01T17:46:11.751Z,100953.03
2022-08-01T17:48:38.806Z,100955.31
2022-08-01T17:51:06.703Z,100960.66
2022-08-01T17:53:34.072Z,100965.78
2022-08-01T17:56:02.564Z,100963.09
2022-08-01T17:58:49.583Z,100966.69
2022-08-01T18:01:19.028Z,100968.19
2022-08-01T18:03:46.139Z,100975.00
2022-08-01T18:06:14.245Z,100979.09
2022-08-01T18:08:43.388Z,100980.94
2022-08-01T18:11:12.700Z,100988.16
2022-08-01T18:13:40.622Z,100982.06
2022-08-01T18:16:09.187Z,100987.34
2022-08-01T18:18:39.283Z,100991.00
2022-08-01T18:21:06.535Z,100995.53
2022-08-01T18:23:33.806Z,100991.19
2022-08-01T18:26:02.428Z,100991.06
2022-08-01T18:28:34.141Z,100992.66
2022-08-01T18:31:03.858Z,100999.13
2022-08-01T18:33:30.630Z,100999.13
2022-08-01T18:36:01.862Z,101001.28
2022-08-01T18:38:32.460Z,101002.28
2022-08-01T18:41:00.566Z,101003.06
2022-08-01T18:43:27.473Z,101012.63
2022-08-01T18:45:57.299Z,101011.81
2022-08-01T18:48:24.542Z,101019.72
2022-08-01T18:50:53.954Z,101016.34
2022-08-01T18:53:24.105Z,101022.88
2022-08-01T18:55:51.063Z,101029.31
2022-08-01T18:58:17.836Z,101028.47
2022-08-01T19:00:44.761Z,101031.91
2022-08-01T19:03:13.398Z,101032.88
2022-08-01T19:05:40.326Z,101033.97
2022-08-01T19:08:08.448Z,101042.03
2022-08-01T19:10:36.369Z,101041.09
2022-08-01T19:13:03.728Z,101049.09
2022-08-01T19:15:30.613Z,101042.22
2022-08-01T19:17:57.469Z,101043.16
2022-08-01T19:20:24.369Z,101050.25
2022-08-01T19:22:51.156Z,101059.97
2022-08-01T19:25:18.100Z,101058.25
2022-08-01T19:27:47.021Z,101062.69
2022-08-01T19:30:16.101Z,101061.91
2022-08-01T19:32:43.724Z,101063.63
2022-08-01T19:35:15.428Z,101069.72
2022-08-01T19:37:47.431Z,101068.84
2022-08-01T19:40:26.607Z,101066.31
2022-08-01T19:43:00.535Z,101071.56
2022-08-01T19:45:30.467Z,101078.59
2022-08-01T19:47:58.084Z,101078.63
2022-08-01T19:50:26.903Z,101083.06
2022-08-01T19:52:55.524Z,101090.91
2022-08-01T19:55:24.623Z,101082.25
2022-08-01T19:58:10.518Z,101079.72
2022-08-01T20:00:40.409Z,101076.25
2022-08-01T20:03:07.552Z,101080.69
2022-08-01T20:05:37.323Z,101075.44
2022-08-01T20:08:06.926Z,101081.59
2022-08-01T20:10:38.223Z,101086.84
2022-08-01T20:13:05.660Z,101093.84
2022-08-01T20:15:32.423Z,101099.06
2022-08-01T20:17:59.641Z,101099.97
2022-08-01T20:20:27.060Z,101100.81
2022-08-01T20:22:56.269Z,101102.59
2022-08-01T20:25:29.657Z,101108.69
2022-08-01T20:28:00.877Z,101112.16
2022-08-01T20:30:31.093Z,101114.81
2022-08-01T20:33:00.089Z,101115.72
2022-08-01T20:35:52.095Z,101108.72
2022-08-01T20:38:16.309Z,101115.72
2022-08-01T20:40:43.901Z,101119.19
2022-08-01T20:43:12.362Z,101117.44
2022-08-01T20:45:39.333Z,101119.19
2022-08-01T20:48:07.061Z,101120.94
2022-08-01T20:50:54.252Z,101134.00
2022-08-01T20:53:24.828Z,101135.72
2022-08-01T20:55:59.865Z,101133.09
2022-08-01T20:58:31.639Z,101139.19
2022-08-01T21:01:00.597Z,101139.22
2022-08-01T21:03:32.961Z,101138.34
2022-08-01T21:06:07.654Z,101140.09
2022-08-01T21:08:44.815Z,101142.78
2022-08-01T21:11:14.664Z,101147.13
2022-08-01T21:13:43.336Z,101140.19
2022-08-01T21:16:22.452Z,101144.53
2022-08-01T21:22:06.892Z,101147.16
2022-08-01T21:24:46.349Z,101157.63
2022-08-01T21:27:33.184Z,101158.47
2022-08-01T21:30:02.049Z,101163.72
2022-08-01T21:32:32.347Z,101162.84
2022-08-01T21:35:00.608Z,101169.81
2022-08-01T21:37:29.071Z,101172.44
2022-08-01T21:39:58.337Z,101181.16
2022-08-01T21:42:26.256Z,101184.66
2022-08-01T21:44:54.605Z,101192.50
2022-08-01T21:47:22.764Z,101201.19
2022-08-01T21:49:49.593Z,101201.19
2022-08-01T21:52:21.713Z,101203.81
2022-08-01T21:54:51.242Z,101213.41
2022-08-01T21:57:25.768Z,101209.06
2022-08-01T21:59:59.980Z,101210.78
2022-08-01T22:02:37.677Z,101223.88
2022-08-01T22:05:11.333Z,101223.03
2022-08-01T22:07:44.159Z,101230.00
2022-08-01T22:10:13.083Z,101224.75
2022-08-01T22:12:39.933Z,101227.38
2022-08-01T22:15:07.139Z,101222.13
2022-08-01T22:17:34.120Z,101233.50
2022-08-01T22:20:01.043Z,101230.00
2022-08-01T22:22:50.723Z,101228.28
2022-08-01T22:25:16.123Z,101234.38
2022-08-01T22:28:08.765Z,101232.56
2022-08-01T22:30:30.841Z,101224.69
2022-08-01T22:33:07.522Z,101230.78
2022-08-01T22:35:45.316Z,101230.78
2022-08-01T22:38:12.046Z,101234.22
2022-08-01T22:40:40.602Z,101228.97
2022-08-01T22:43:15.665Z,101228.94
2022-08-01T22:45:42.356Z,101231.56
2022-08-01T22:48:09.032Z,101222.84
2022-08-01T22:50:39.923Z,101228.06
2022-08-01T22:53:09.755Z,101223.69
2022-08-01T22:55:58.805Z,101227.19
2022-08-01T22:58:25.311Z,101219.28
2022-08-01T23:00:55.925Z,101224.50
2022-08-01T23:03:33.742Z,101221.00
2022-08-01T23:06:07.181Z,101226.25
2022-08-01T23:08:35.741Z,101221.00
2022-08-01T23:11:03.318Z,101224.38
2022-08-01T23:13:30.429Z,101229.63
2022-08-01T23:15:58.238Z,101227.00
2022-08-01T23:18:25.733Z,101226.09
2022-08-01T23:20:55.503Z,101228.72
2022-08-01T23:23:30.671Z,101220.81
2022-08-01T23:25:59.472Z,101226.00
2022-08-01T23:28:26.614Z,101238.16
2022-08-01T23:30:54.080Z,101233.78
2022-08-01T23:33:20.770Z,101228.53
2022-08-01T23:35:47.699Z,101238.06
2022-08-01T23:38:16.048Z,101242.47
2022-08-01T23:40:43.245Z,101238.06
2022-08-01T23:43:17.068Z,101229.34
2022-08-01T23:46:04.021Z,101234.56
2022-08-01T23:48:33.942Z,101235.50
2022-08-01T23:51:02.137Z,101239.72
2022-08-01T23:53:30.852Z,101241.41
2022-08-01T23:55:58.705Z,101233.63
2022-08-01T23:58:26.921Z,101239.78
